KCDC/CDC METAR and TAF weather

Enter ICAO airport designator
Station Type Date Time Source
KCDC METAR 2022/01/29 12:53 UTC NOAA

KCDC 291253Z AUTO 00000KT 10SM CLR M08/M12 A3036 RMK AO2 SLP305 T10831122


Station Type Date Time Source
KCDC Decoded METAR 2022/01/29 12:53 UTC NOAA

CEDAR CITY MUN AIRPORT, UT, United States (KCDC) 37-42N 113-06W 1714M
Jan 29, 2022 - 07:53 AM EST / 2022.01.29 1253 UTC
Wind: Calm:0
Visibility: 10 mile(s):0
Sky conditions: clear
Temperature: 17.1 F (-8.3 C)
Dew Point: 10.0 F (-12.2 C)
Relative Humidity: 73%
Pressure (altimeter): 30.36 in. Hg (1028 hPa)
ob: KCDC 291253Z AUTO 00000KT 10SM CLR M08/M12 A3036 RMK AO2 SLP305 T10831122
cycle: 13

Station Type Date Time Source
KCDC TAF 2022/01/29 12:22 UTC NOAA

TAF KCDC 291120Z 2912/3012 VRB04KT P6SM SKC

Example: see airport list